createdAt,value
2023-01-17T00:02:17.932Z,9.20
2023-01-17T00:05:04.309Z,5.45
2023-01-17T00:07:50.513Z,6.65
2023-01-17T00:10:23.501Z,5.40
2023-01-17T00:12:52.446Z,5.95
2023-01-17T00:15:20.526Z,9.55
2023-01-17T00:17:48.771Z,4.00
2023-01-17T00:20:41.004Z,4.57
2023-01-17T00:23:28.233Z,6.25
2023-01-17T00:26:05.126Z,4.70
2023-01-17T00:28:36.005Z,5.07
2023-01-17T00:31:05.041Z,2.55
2023-01-17T00:33:32.756Z,3.22
2023-01-17T00:36:00.684Z,5.82
2023-01-17T00:38:33.659Z,6.32
2023-01-17T00:41:04.596Z,3.88
2023-01-17T00:43:50.635Z,4.35
2023-01-17T00:46:37.319Z,9.38
2023-01-17T00:49:23.346Z,6.53
2023-01-17T00:52:09.759Z,4.88
2023-01-17T00:54:56.219Z,4.53
2023-01-17T00:57:42.156Z,5.07
2023-01-17T01:00:28.837Z,6.70
2023-01-17T01:03:15.626Z,4.50
2023-01-17T01:06:01.593Z,2.92
2023-01-17T01:08:49.745Z,9.93
2023-01-17T01:11:39.483Z,4.75
2023-01-17T01:14:27.578Z,7.57
2023-01-17T01:17:13.432Z,6.63
2023-01-17T01:19:59.705Z,4.78
2023-01-17T01:22:45.543Z,5.30
2023-01-17T01:25:31.600Z,5.15
2023-01-17T01:28:29.675Z,5.97
2023-01-17T01:31:22.348Z,5.65
2023-01-17T01:33:52.103Z,6.10
2023-01-17T01:36:19.567Z,7.63
2023-01-17T01:38:47.135Z,7.47
2023-01-17T01:41:14.909Z,5.50
2023-01-17T01:43:53.715Z,8.70
2023-01-17T01:46:25.830Z,4.80
2023-01-17T01:49:15.429Z,9.05
2023-01-17T01:51:47.720Z,7.78
2023-01-17T01:54:19.861Z,6.30
2023-01-17T01:56:48.328Z,5.32
2023-01-17T01:59:17.314Z,6.68
2023-01-17T02:01:45.205Z,4.72
2023-01-17T02:04:13.069Z,9.40
2023-01-17T02:06:49.440Z,4.07
2023-01-17T02:09:18.321Z,9.60
2023-01-17T02:11:46.912Z,3.17
2023-01-17T02:14:19.284Z,7.45
2023-01-17T02:17:05.187Z,5.82
2023-01-17T02:19:59.338Z,7.40
2023-01-17T02:22:56.870Z,4.55
2023-01-17T02:26:01.738Z,5.18
2023-01-17T02:28:53.672Z,6.45
2023-01-17T02:31:32.704Z,5.38
2023-01-17T02:34:18.271Z,5.05
2023-01-17T02:37:01.181Z,6.00
2023-01-17T02:39:38.463Z,9.25
2023-01-17T02:42:11.243Z,6.32
2023-01-17T02:44:42.715Z,5.90
2023-01-17T02:47:27.836Z,6.05
2023-01-17T02:50:01.632Z,4.55
2023-01-17T02:52:33.284Z,7.68
2023-01-17T02:55:18.606Z,5.05
2023-01-17T02:57:52.298Z,9.23
2023-01-17T03:00:27.178Z,4.93
2023-01-17T03:03:21.204Z,4.75
2023-01-17T03:06:16.002Z,6.07
2023-01-17T03:08:46.091Z,3.30
2023-01-17T03:11:14.185Z,6.82
2023-01-17T03:13:42.392Z,8.75
2023-01-17T03:16:17.186Z,4.10
2023-01-17T03:18:44.812Z,9.15
2023-01-17T03:21:12.805Z,5.00
2023-01-17T03:23:40.508Z,2.58
2023-01-17T03:26:08.358Z,7.50
2023-01-17T03:28:36.191Z,5.90
2023-01-17T03:31:03.927Z,2.53
2023-01-17T03:33:32.696Z,5.30
2023-01-17T03:36:00.366Z,8.90
2023-01-17T03:38:28.913Z,5.15
2023-01-17T03:40:56.527Z,8.57
2023-01-17T03:43:24.377Z,8.20
2023-01-17T03:45:54.533Z,6.65
2023-01-17T03:48:22.827Z,7.55
2023-01-17T03:50:53.835Z,7.70
2023-01-17T03:53:21.438Z,6.22
2023-01-17T03:55:50.339Z,5.47
2023-01-17T03:58:17.912Z,3.58
2023-01-17T04:00:46.044Z,8.77
2023-01-17T04:03:13.690Z,7.85
2023-01-17T04:05:41.409Z,5.90
2023-01-17T04:08:09.033Z,4.03
2023-01-17T04:10:36.853Z,4.95
2023-01-17T04:13:04.216Z,11.40
2023-01-17T04:15:32.011Z,13.82
2023-01-17T04:17:59.664Z,6.05
2023-01-17T04:20:36.575Z,2.60
2023-01-17T04:23:04.583Z,9.18
2023-01-17T04:25:32.778Z,7.15
2023-01-17T04:28:01.773Z,4.75
2023-01-17T04:30:30.713Z,8.05
2023-01-17T04:32:58.946Z,4.63
2023-01-17T04:35:26.704Z,10.05
2023-01-17T04:37:54.104Z,4.78
2023-01-17T04:40:21.729Z,8.15
2023-01-17T04:42:51.474Z,10.63
2023-01-17T04:45:19.195Z,9.55
2023-01-17T04:47:46.833Z,7.93
2023-01-17T04:50:14.595Z,6.18
2023-01-17T04:52:42.319Z,4.40
2023-01-17T04:55:10.051Z,4.65
2023-01-17T04:57:38.219Z,6.78
2023-01-17T05:00:06.323Z,6.15
2023-01-17T05:02:34.044Z,6.00
2023-01-17T05:05:01.734Z,16.52
2023-01-17T05:07:29.573Z,5.40
2023-01-17T05:09:57.276Z,5.53
2023-01-17T05:12:25.044Z,8.65
2023-01-17T05:14:52.773Z,10.90
2023-01-17T05:17:20.424Z,11.27
2023-01-17T05:19:48.437Z,8.07
2023-01-17T05:22:17.583Z,10.15
2023-01-17T05:24:46.608Z,6.50
2023-01-17T05:27:15.064Z,11.18
2023-01-17T05:29:43.408Z,9.60
2023-01-17T05:32:10.869Z,29.30
2023-01-17T05:34:38.703Z,12.43
2023-01-17T05:37:06.419Z,19.77
2023-01-17T05:39:34.006Z,18.45
2023-01-17T05:42:02.207Z,12.93
2023-01-17T05:44:29.873Z,17.67
2023-01-17T05:46:57.676Z,16.50
2023-01-17T05:49:25.279Z,18.95
2023-01-17T05:51:54.824Z,12.82
2023-01-17T05:54:22.829Z,9.82
2023-01-17T05:56:50.520Z,18.00
2023-01-17T05:59:28.565Z,20.45
2023-01-17T06:02:00.152Z,72.20
2023-01-17T06:04:27.923Z,19.00
2023-01-17T06:06:55.662Z,11.23
2023-01-17T06:09:23.412Z,12.30
2023-01-17T06:11:51.188Z,9.70
2023-01-17T06:14:18.795Z,45.17
2023-01-17T06:16:47.837Z,26.92
2023-01-17T06:19:15.381Z,46.45
2023-01-17T06:21:43.015Z,29.48
2023-01-17T06:24:10.715Z,28.92
2023-01-17T06:26:38.471Z,31.33
2023-01-17T06:29:06.505Z,21.30
2023-01-17T06:31:34.689Z,18.83
2023-01-17T06:34:05.579Z,24.08
2023-01-17T06:36:36.947Z,49.85
2023-01-17T06:39:04.890Z,33.13
2023-01-17T06:41:32.644Z,32.42
2023-01-17T06:44:00.551Z,48.00
2023-01-17T06:46:28.299Z,28.30
2023-01-17T06:48:56.746Z,25.67
2023-01-17T06:51:24.575Z,57.75
2023-01-17T06:53:52.422Z,57.55
2023-01-17T06:56:20.243Z,83.22
2023-01-17T06:58:53.982Z,37.03
2023-01-17T07:01:21.525Z,22.77
2023-01-17T07:03:49.220Z,37.83
2023-01-17T07:06:16.871Z,24.48
2023-01-17T07:08:44.634Z,21.30
2023-01-17T07:11:12.500Z,36.03
2023-01-17T07:13:40.596Z,48.65
2023-01-17T07:16:08.989Z,48.38
2023-01-17T07:18:36.827Z,40.22
2023-01-17T07:21:04.661Z,43.35
2023-01-17T07:23:32.190Z,35.30
2023-01-17T07:26:02.861Z,38.08
2023-01-17T07:28:30.727Z,41.95
2023-01-17T07:30:59.500Z,33.05
2023-01-17T07:33:27.703Z,36.80
2023-01-17T07:35:55.414Z,31.08
2023-01-17T07:38:23.153Z,36.33
2023-01-17T07:40:51.452Z,46.90
2023-01-17T07:43:19.512Z,50.72
2023-01-17T07:45:52.200Z,94.80
2023-01-17T07:48:22.171Z,58.13
2023-01-17T07:50:57.452Z,70.78
2023-01-17T07:53:26.549Z,50.35
2023-01-17T07:55:54.678Z,61.42
2023-01-17T07:58:22.539Z,67.57
2023-01-17T08:00:50.574Z,55.65
2023-01-17T08:03:18.887Z,72.88
2023-01-17T08:05:55.588Z,47.20
2023-01-17T08:08:23.374Z,48.35
2023-01-17T08:10:51.784Z,51.75
2023-01-17T08:13:19.605Z,31.02
2023-01-17T08:15:49.472Z,67.63
2023-01-17T08:18:17.587Z,64.32
2023-01-17T08:20:45.755Z,46.00
2023-01-17T08:23:13.481Z,25.05
2023-01-17T08:25:41.302Z,58.00
2023-01-17T08:28:09.071Z,63.25
2023-01-17T08:30:37.781Z,79.32
2023-01-17T08:33:05.421Z,80.15
2023-01-17T08:35:35.491Z,44.88
2023-01-17T08:38:05.035Z,67.80
2023-01-17T08:40:33.165Z,68.20
2023-01-17T08:43:01.784Z,51.72
2023-01-17T08:45:29.789Z,37.90
2023-01-17T08:48:01.948Z,49.00
2023-01-17T08:50:29.856Z,52.30
2023-01-17T08:53:01.347Z,56.55
2023-01-17T08:55:29.323Z,41.50
2023-01-17T08:57:57.671Z,40.08
2023-01-17T09:00:25.543Z,39.90
2023-01-17T09:02:53.920Z,40.03
2023-01-17T09:05:24.189Z,41.08
2023-01-17T09:10:28.387Z,46.38
2023-01-17T09:13:02.929Z,25.52
2023-01-17T09:16:01.919Z,34.60
2023-01-17T09:18:32.621Z,39.47
2023-01-17T09:21:00.732Z,55.33
2023-01-17T09:23:31.122Z,36.88
2023-01-17T09:26:03.318Z,33.88
2023-01-17T09:28:31.351Z,69.70
2023-01-17T09:30:59.587Z,66.38
2023-01-17T09:33:30.449Z,62.08
2023-01-17T09:36:03.790Z,62.53
2023-01-17T09:38:33.575Z,37.50
2023-01-17T09:41:02.982Z,51.47
2023-01-17T09:43:53.195Z,40.30
2023-01-17T09:46:25.657Z,51.47
2023-01-17T09:49:00.775Z,45.45
2023-01-17T09:51:28.761Z,27.67
2023-01-17T09:53:56.658Z,48.22
2023-01-17T09:56:35.930Z,44.17
2023-01-17T09:59:32.337Z,52.05
2023-01-17T10:02:56.718Z,61.05
2023-01-17T10:05:47.352Z,34.72
2023-01-17T10:08:32.291Z,34.13
2023-01-17T10:11:06.057Z,42.08
2023-01-17T10:13:36.283Z,40.13
2023-01-17T10:19:10.191Z,58.15
2023-01-17T10:22:02.056Z,69.72
2023-01-17T10:25:08.649Z,31.38
2023-01-17T10:27:40.787Z,32.80
2023-01-17T10:30:24.909Z,54.33
2023-01-17T10:32:56.609Z,108.30
2023-01-17T10:35:31.432Z,95.82
2023-01-17T10:38:01.064Z,53.40
2023-01-17T10:40:29.282Z,62.70
2023-01-17T10:43:44.650Z,29.60
2023-01-17T10:46:20.692Z,46.42
2023-01-17T10:48:52.632Z,101.68
2023-01-17T10:51:23.951Z,102.07
2023-01-17T10:53:54.238Z,100.45
2023-01-17T10:56:28.260Z,96.68
2023-01-17T10:59:02.598Z,151.60
2023-01-17T11:01:31.958Z,106.75
2023-01-17T11:04:00.534Z,111.80
2023-01-17T11:06:28.603Z,108.43
2023-01-17T11:08:58.448Z,97.47
2023-01-17T11:11:33.786Z,141.57
2023-01-17T11:14:02.862Z,180.55
2023-01-17T11:16:31.524Z,163.77
2023-01-17T11:19:21.806Z,180.02
2023-01-17T11:22:01.908Z,172.75
2023-01-17T11:24:41.853Z,155.73
2023-01-17T11:27:24.558Z,139.27
2023-01-17T11:32:34.535Z,147.23
2023-01-17T11:35:08.584Z,147.38
2023-01-17T11:37:37.847Z,141.77
2023-01-17T11:40:16.893Z,78.47
2023-01-17T11:42:44.808Z,47.08
2023-01-17T11:45:30.996Z,42.92
2023-01-17T11:48:14.083Z,57.92
2023-01-17T11:50:43.230Z,77.50
2023-01-17T11:53:24.627Z,53.42
2023-01-17T11:56:04.081Z,65.32
2023-01-17T11:58:38.758Z,83.82
2023-01-17T12:01:27.277Z,66.22
2023-01-17T12:04:01.664Z,39.45
2023-01-17T12:06:32.832Z,66.95
2023-01-17T12:09:00.595Z,58.72
2023-01-17T12:11:32.348Z,62.97
2023-01-17T12:14:36.343Z,72.97
2023-01-17T12:17:22.909Z,68.40
2023-01-17T12:20:06.198Z,52.47
2023-01-17T12:22:46.491Z,46.97
2023-01-17T12:25:48.851Z,34.08
2023-01-17T12:28:31.389Z,51.42
2023-01-17T12:31:30.068Z,43.38
2023-01-17T12:33:59.947Z,82.97
2023-01-17T12:36:40.663Z,39.67
2023-01-17T12:39:12.086Z,84.68
2023-01-17T12:42:10.403Z,71.60
2023-01-17T12:44:51.918Z,80.97
2023-01-17T12:47:21.677Z,110.68
2023-01-17T12:49:53.132Z,65.35
2023-01-17T12:52:20.953Z,42.88
2023-01-17T12:55:00.047Z,27.95
2023-01-17T12:57:34.950Z,56.92
2023-01-17T13:00:19.770Z,102.03
2023-01-17T13:03:03.053Z,86.07
2023-01-17T13:05:37.478Z,85.55
2023-01-17T13:08:14.468Z,59.78
2023-01-17T13:10:58.366Z,58.92
2023-01-17T13:13:28.190Z,53.22
2023-01-17T13:16:05.784Z,33.63
2023-01-17T13:18:33.736Z,129.85
2023-01-17T13:21:07.046Z,55.28
2023-01-17T13:23:43.776Z,78.65
2023-01-17T13:26:44.795Z,59.80
2023-01-17T13:29:47.775Z,31.92
2023-01-17T13:32:25.447Z,47.05
2023-01-17T13:35:05.441Z,34.40
2023-01-17T13:37:57.369Z,69.80
2023-01-17T13:40:25.176Z,37.67
2023-01-17T13:43:02.639Z,86.22
2023-01-17T13:45:37.762Z,51.85
2023-01-17T13:48:11.808Z,93.68
2023-01-17T13:50:39.435Z,80.20
2023-01-17T13:53:35.020Z,48.13
2023-01-17T13:56:18.856Z,65.28
2023-01-17T13:58:50.546Z,27.48
2023-01-17T14:01:24.403Z,51.28
2023-01-17T14:03:53.306Z,71.70
2023-01-17T14:06:41.444Z,66.82
2023-01-17T14:09:09.603Z,77.63
2023-01-17T14:11:51.013Z,60.17
2023-01-17T14:14:37.620Z,72.22
2023-01-17T14:17:26.756Z,82.95
2023-01-17T14:19:57.530Z,75.55
2023-01-17T14:22:27.581Z,95.13
2023-01-17T14:25:50.766Z,53.10
2023-01-17T14:28:30.759Z,62.47
2023-01-17T14:31:00.629Z,21.45
2023-01-17T14:33:34.228Z,27.50
2023-01-17T14:36:09.442Z,44.03
2023-01-17T14:38:43.857Z,43.63
2023-01-17T14:41:24.603Z,61.28
2023-01-17T14:43:53.025Z,45.45
2023-01-17T14:46:32.872Z,29.23
2023-01-17T14:49:06.096Z,33.53
2023-01-17T14:51:39.485Z,34.78
2023-01-17T14:54:21.715Z,45.78
2023-01-17T14:56:50.065Z,47.40
2023-01-17T14:59:23.126Z,51.78
2023-01-17T15:02:08.213Z,39.70
2023-01-17T15:04:41.998Z,88.88
2023-01-17T15:07:19.998Z,45.58
2023-01-17T15:09:47.807Z,31.77
2023-01-17T15:12:15.973Z,65.85
2023-01-17T15:14:50.384Z,69.20
2023-01-17T15:17:19.602Z,37.75
2023-01-17T15:19:56.148Z,42.97
2023-01-17T15:22:24.151Z,90.90
2023-01-17T15:24:53.563Z,61.60
2023-01-17T15:27:21.761Z,81.68
2023-01-17T15:29:51.690Z,49.72
2023-01-17T15:32:28.105Z,44.35
2023-01-17T15:34:57.094Z,103.32
2023-01-17T15:37:30.777Z,105.70
2023-01-17T15:40:16.877Z,57.25
2023-01-17T15:42:46.223Z,112.00
2023-01-17T15:45:22.303Z,93.95
2023-01-17T15:47:50.110Z,91.00
2023-01-17T15:50:27.958Z,93.15
2023-01-17T15:53:05.331Z,110.00
2023-01-17T15:55:38.939Z,75.00
2023-01-17T15:58:27.396Z,56.42
2023-01-17T16:00:55.683Z,70.43
2023-01-17T16:03:32.809Z,103.68
2023-01-17T16:06:04.866Z,49.65
2023-01-17T16:08:40.279Z,101.13
2023-01-17T16:11:12.668Z,82.85
2023-01-17T16:13:43.563Z,74.65
2023-01-17T16:16:11.043Z,72.78
2023-01-17T16:18:38.885Z,72.05
2023-01-17T16:21:09.663Z,84.15
2023-01-17T16:23:37.357Z,91.65
2023-01-17T16:26:05.657Z,101.07
2023-01-17T16:28:34.780Z,93.22
2023-01-17T16:31:03.637Z,46.40
2023-01-17T16:33:31.361Z,82.13
2023-01-17T16:35:59.267Z,34.78
2023-01-17T16:38:26.910Z,47.03
2023-01-17T16:40:55.052Z,40.55
2023-01-17T16:43:22.762Z,59.63
2023-01-17T16:45:55.655Z,52.95
2023-01-17T16:48:23.769Z,50.75
2023-01-17T16:50:52.987Z,44.30
2023-01-17T16:53:30.629Z,45.13
2023-01-17T16:56:05.484Z,26.00
2023-01-17T16:58:33.215Z,38.22
2023-01-17T17:01:00.942Z,55.72
2023-01-17T17:03:28.500Z,41.03
2023-01-17T17:06:00.910Z,44.40
2023-01-17T17:08:29.479Z,43.72
2023-01-17T17:11:08.165Z,52.92
2023-01-17T17:13:38.869Z,41.22
2023-01-17T17:16:10.973Z,35.88
2023-01-17T17:18:39.052Z,29.60
2023-01-17T17:21:09.093Z,53.90
2023-01-17T17:23:36.991Z,40.47
2023-01-17T17:26:04.956Z,63.58
2023-01-17T17:28:32.799Z,49.47
2023-01-17T17:31:10.559Z,30.30
2023-01-17T17:33:38.874Z,41.95
2023-01-17T17:36:10.375Z,24.48
2023-01-17T17:38:51.099Z,46.65
2023-01-17T17:41:26.164Z,46.63
2023-01-17T17:43:54.170Z,46.47
2023-01-17T17:46:23.289Z,43.20
2023-01-17T17:48:51.627Z,27.15
2023-01-17T17:51:26.905Z,40.70
2023-01-17T17:53:55.815Z,61.80
2023-01-17T17:56:24.346Z,30.60
2023-01-17T17:58:52.179Z,29.67
2023-01-17T18:01:22.795Z,49.63
2023-01-17T18:03:55.260Z,48.10
2023-01-17T18:06:23.279Z,31.60
2023-01-17T18:08:52.245Z,35.55
2023-01-17T18:11:29.847Z,46.50
2023-01-17T18:13:59.703Z,36.30
2023-01-17T18:16:29.824Z,38.03
2023-01-17T18:18:59.398Z,22.23
2023-01-17T18:21:32.303Z,33.13
2023-01-17T18:24:05.569Z,34.10
2023-01-17T18:26:35.679Z,49.17
2023-01-17T18:29:04.582Z,55.53
2023-01-17T18:31:32.739Z,50.33
2023-01-17T18:34:02.578Z,19.92
2023-01-17T18:36:30.368Z,49.63
2023-01-17T18:38:58.303Z,38.63
2023-01-17T18:41:27.868Z,29.83
2023-01-17T18:43:58.640Z,38.40
2023-01-17T18:46:27.628Z,45.45
2023-01-17T18:48:58.682Z,54.83
2023-01-17T18:51:28.729Z,41.83
2023-01-17T18:53:58.104Z,45.47
2023-01-17T18:56:26.515Z,58.40
2023-01-17T18:58:55.812Z,44.10
2023-01-17T19:01:25.903Z,28.25
2023-01-17T19:03:56.441Z,48.50
2023-01-17T19:06:45.090Z,49.92
2023-01-17T19:09:14.261Z,44.25
2023-01-17T19:11:44.566Z,39.08
2023-01-17T19:14:12.815Z,57.67
2023-01-17T19:16:42.085Z,31.58
2023-01-17T19:19:12.693Z,44.40
2023-01-17T19:21:40.666Z,60.92
2023-01-17T19:24:08.353Z,50.35
2023-01-17T19:26:35.830Z,47.42
2023-01-17T19:29:05.061Z,38.08
2023-01-17T19:31:34.507Z,43.88
2023-01-17T19:34:02.744Z,60.15
2023-01-17T19:36:34.967Z,53.45
2023-01-17T19:39:05.680Z,33.90
2023-01-17T19:41:35.427Z,5.18
2023-01-17T19:44:13.212Z,3.08
2023-01-17T19:46:40.834Z,8.43
2023-01-17T19:49:09.482Z,6.00
2023-01-17T19:51:36.965Z,4.85
2023-01-17T19:54:06.539Z,7.55
2023-01-17T19:56:34.254Z,6.13
2023-01-17T19:59:02.416Z,3.15
2023-01-17T20:01:31.677Z,7.35
2023-01-17T20:03:59.799Z,4.22
2023-01-17T20:06:29.049Z,2.90
2023-01-17T20:08:56.683Z,2.80
2023-01-17T20:11:25.411Z,3.60
2023-01-17T20:13:54.342Z,4.85
2023-01-17T20:16:22.372Z,4.75
2023-01-17T20:18:50.377Z,4.38
2023-01-17T20:21:20.590Z,5.68
2023-01-17T20:23:48.828Z,4.35
2023-01-17T20:26:19.471Z,6.80
2023-01-17T20:28:48.401Z,5.15
2023-01-17T20:31:18.447Z,13.10
2023-01-17T20:33:47.433Z,4.53
2023-01-17T20:36:21.637Z,4.00
2023-01-17T20:38:49.236Z,58.55
2023-01-17T20:41:29.770Z,41.20
2023-01-17T20:43:58.359Z,37.75
2023-01-17T20:46:27.808Z,29.88
2023-01-17T20:48:56.772Z,30.35
2023-01-17T20:51:25.763Z,50.20
2023-01-17T20:53:58.251Z,55.50
2023-01-17T20:56:25.965Z,42.22
2023-01-17T20:58:54.221Z,48.00
2023-01-17T21:01:22.368Z,41.65
2023-01-17T21:03:53.220Z,27.58
2023-01-17T21:06:21.932Z,49.60
2023-01-17T21:08:49.779Z,44.70
2023-01-17T21:11:20.131Z,39.10
2023-01-17T21:13:48.909Z,44.53
2023-01-17T21:16:17.950Z,28.95
2023-01-17T21:18:50.012Z,42.63
2023-01-17T21:21:29.071Z,35.35
2023-01-17T21:23:58.958Z,33.85
2023-01-17T21:26:30.990Z,53.47
2023-01-17T21:29:00.452Z,38.92
2023-01-17T21:31:33.507Z,46.60
2023-01-17T21:34:05.416Z,40.60
2023-01-17T21:36:37.730Z,5.07
2023-01-17T21:39:07.275Z,11.20
2023-01-17T21:41:37.616Z,6.68
2023-01-17T21:44:21.803Z,3.53
2023-01-17T21:46:53.628Z,6.03
2023-01-17T21:49:23.907Z,3.33
2023-01-17T21:51:54.507Z,6.40
2023-01-17T21:54:41.402Z,3.22
2023-01-17T21:57:28.146Z,5.18
2023-01-17T21:59:55.787Z,3.45
2023-01-17T22:02:23.563Z,8.15
2023-01-17T22:04:51.282Z,2.85
2023-01-17T22:07:18.742Z,6.30
2023-01-17T22:09:46.464Z,3.53
2023-01-17T22:12:13.914Z,5.25
2023-01-17T22:14:41.724Z,11.18
2023-01-17T22:17:09.772Z,4.60
2023-01-17T22:19:37.412Z,3.80
2023-01-17T22:22:05.147Z,3.67
2023-01-17T22:24:32.893Z,5.20
2023-01-17T22:27:00.501Z,7.30
2023-01-17T22:29:28.232Z,2.90
2023-01-17T22:31:56.486Z,9.15
2023-01-17T22:34:24.798Z,25.70
2023-01-17T22:36:52.420Z,13.90
2023-01-17T22:39:21.436Z,60.20
2023-01-17T22:41:49.157Z,42.05
2023-01-17T22:44:16.770Z,44.90
2023-01-17T22:46:44.569Z,45.60
2023-01-17T22:49:13.484Z,49.85
2023-01-17T22:51:41.431Z,37.25
2023-01-17T22:54:09.078Z,38.13
2023-01-17T22:56:36.813Z,57.20
2023-01-17T22:59:05.833Z,40.28
2023-01-17T23:01:33.920Z,3.80
2023-01-17T23:04:03.948Z,1.52
2023-01-17T23:06:40.942Z,9.25
2023-01-17T23:09:11.389Z,3.70
2023-01-17T23:11:48.757Z,5.90
2023-01-17T23:14:25.572Z,3.15
2023-01-17T23:17:17.987Z,11.25
2023-01-17T23:19:47.900Z,4.63
2023-01-17T23:22:20.893Z,6.72
2023-01-17T23:25:15.050Z,2.85
2023-01-17T23:28:03.837Z,2.88
2023-01-17T23:30:41.457Z,5.22
2023-01-17T23:33:12.136Z,3.60
2023-01-17T23:35:42.467Z,9.60
2023-01-17T23:38:28.799Z,46.30
2023-01-17T23:41:26.583Z,35.92
2023-01-17T23:43:59.173Z,42.92
2023-01-17T23:46:27.433Z,57.35
2023-01-17T23:48:55.404Z,37.80
2023-01-17T23:51:23.064Z,21.27
2023-01-17T23:53:53.512Z,40.45
2023-01-17T23:56:23.530Z,42.38
2023-01-17T23:58:51.368Z,49.60
